sensor_id;sensor_type;location;lat;lon;timestamp;pressure;altitude;pressure_sealevel;temperature;humidity
53679;BME280;40119;52.030;4.708;2022-11-14T00:00:48;101639.34;;;9.60;40.14
53679;BME280;40119;52.030;4.708;2022-11-14T00:02:54;101634.12;;;13.62;35.77
53679;BME280;40119;52.030;4.708;2022-11-14T00:05:02;101635.61;;;13.44;35.93
53679;BME280;40119;52.030;4.708;2022-11-14T00:07:07;101643.78;;;12.04;37.85
53679;BME280;40119;52.030;4.708;2022-11-14T00:09:11;101635.83;;;13.02;35.66
53679;BME280;40119;52.030;4.708;2022-11-14T00:11:15;101633.75;;;12.54;37.34
53679;BME280;40119;52.030;4.708;2022-11-14T00:13:20;101635.16;;;10.28;40.24
53679;BME280;40119;52.030;4.708;2022-11-14T00:15:24;101632.31;;;11.33;39.15
53679;BME280;40119;52.030;4.708;2022-11-14T00:17:28;101633.40;;;12.25;38.31
53679;BME280;40119;52.030;4.708;2022-11-14T00:19:33;101640.60;;;11.91;37.77
53679;BME280;40119;52.030;4.708;2022-11-14T00:21:37;101633.14;;;12.47;36.96
53679;BME280;40119;52.030;4.708;2022-11-14T00:23:41;101633.01;;;13.74;35.85
53679;BME280;40119;52.030;4.708;2022-11-14T00:25:46;101631.39;;;12.98;37.29
53679;BME280;40119;52.030;4.708;2022-11-14T00:27:51;101627.25;;;13.48;35.40
53679;BME280;40119;52.030;4.708;2022-11-14T00:29:56;101627.06;;;13.69;35.61
53679;BME280;40119;52.030;4.708;2022-11-14T00:32:00;101627.49;;;12.92;36.01
53679;BME280;40119;52.030;4.708;2022-11-14T00:34:05;101630.75;;;11.51;38.76
53679;BME280;40119;52.030;4.708;2022-11-14T00:36:09;101623.55;;;11.92;38.49
53679;BME280;40119;52.030;4.708;2022-11-14T00:38:14;101611.85;;;12.91;37.04
53679;BME280;40119;52.030;4.708;2022-11-14T00:40:18;101617.45;;;12.16;37.70
53679;BME280;40119;52.030;4.708;2022-11-14T00:42:23;101612.17;;;12.31;37.74
53679;BME280;40119;52.030;4.708;2022-11-14T00:44:27;101608.84;;;12.45;36.98
53679;BME280;40119;52.030;4.708;2022-11-14T00:46:32;101611.56;;;9.94;41.40
53679;BME280;40119;52.030;4.708;2022-11-14T00:48:36;101610.01;;;9.03;43.23
53679;BME280;40119;52.030;4.708;2022-11-14T00:50:41;101605.67;;;11.71;38.74
53679;BME280;40119;52.030;4.708;2022-11-14T00:52:45;101614.67;;;11.71;39.38
53679;BME280;40119;52.030;4.708;2022-11-14T00:54:49;101611.41;;;11.77;38.44
53679;BME280;40119;52.030;4.708;2022-11-14T00:56:54;101606.74;;;12.42;37.53
53679;BME280;40119;52.030;4.708;2022-11-14T00:58:59;101599.88;;;13.04;37.39
53679;BME280;40119;52.030;4.708;2022-11-14T01:01:03;101610.16;;;10.65;40.18
53679;BME280;40119;52.030;4.708;2022-11-14T01:03:08;101598.15;;;12.11;38.33
53679;BME280;40119;52.030;4.708;2022-11-14T01:05:12;101599.55;;;11.68;38.95
53679;BME280;40119;52.030;4.708;2022-11-14T01:07:17;101594.28;;;11.84;38.73
53679;BME280;40119;52.030;4.708;2022-11-14T01:09:21;101592.92;;;12.74;37.70
53679;BME280;40119;52.030;4.708;2022-11-14T01:11:25;101594.52;;;10.36;40.23
53679;BME280;40119;52.030;4.708;2022-11-14T01:13:31;101588.36;;;12.32;38.50
53679;BME280;40119;52.030;4.708;2022-11-14T01:15:38;101587.29;;;12.70;37.79
53679;BME280;40119;52.030;4.708;2022-11-14T01:17:43;101590.10;;;9.73;41.44
53679;BME280;40119;52.030;4.708;2022-11-14T01:19:47;101589.32;;;10.96;39.91
53679;BME280;40119;52.030;4.708;2022-11-14T01:21:52;101585.14;;;11.85;39.02
53679;BME280;40119;52.030;4.708;2022-11-14T01:23:56;101586.78;;;11.98;39.31
53679;BME280;40119;52.030;4.708;2022-11-14T01:26:01;101586.35;;;10.42;40.81
53679;BME280;40119;52.030;4.708;2022-11-14T01:28:07;101585.75;;;10.02;41.39
53679;BME280;40119;52.030;4.708;2022-11-14T01:30:13;101584.43;;;10.87;40.96
53679;BME280;40119;52.030;4.708;2022-11-14T01:32:17;101581.57;;;9.41;42.62
53679;BME280;40119;52.030;4.708;2022-11-14T01:34:22;101578.06;;;10.30;41.85
53679;BME280;40119;52.030;4.708;2022-11-14T01:36:26;101580.21;;;8.28;44.23
53679;BME280;40119;52.030;4.708;2022-11-14T01:38:31;101575.46;;;11.22;40.26
53679;BME280;40119;52.030;4.708;2022-11-14T01:40:40;101567.80;;;9.75;42.14
53679;BME280;40119;52.030;4.708;2022-11-14T01:43:28;101561.12;;;10.46;41.53
53679;BME280;40119;52.030;4.708;2022-11-14T01:45:52;101559.94;;;9.67;42.71
53679;BME280;40119;52.030;4.708;2022-11-14T01:47:56;101546.41;;;11.62;40.25
53679;BME280;40119;52.030;4.708;2022-11-14T01:50:04;101550.22;;;9.55;43.44
53679;BME280;40119;52.030;4.708;2022-11-14T01:52:11;101547.60;;;8.42;46.20
53679;BME280;40119;52.030;4.708;2022-11-14T01:54:21;101547.14;;;10.26;42.03
53679;BME280;40119;52.030;4.708;2022-11-14T01:56:30;101549.35;;;8.32;45.84
53679;BME280;40119;52.030;4.708;2022-11-14T01:58:38;101545.52;;;8.89;44.34
53679;BME280;40119;52.030;4.708;2022-11-14T02:00:45;101541.74;;;10.59;42.27
53679;BME280;40119;52.030;4.708;2022-11-14T02:02:49;101542.87;;;7.01;47.83
53679;BME280;40119;52.030;4.708;2022-11-14T02:04:58;101539.07;;;7.19;47.85
53679;BME280;40119;52.030;4.708;2022-11-14T02:07:04;101533.07;;;7.83;47.56
53679;BME280;40119;52.030;4.708;2022-11-14T02:09:09;101529.35;;;6.84;47.83
53679;BME280;40119;52.030;4.708;2022-11-14T02:11:13;101524.41;;;8.63;45.64
53679;BME280;40119;52.030;4.708;2022-11-14T02:13:18;101529.44;;;7.29;48.18
53679;BME280;40119;52.030;4.708;2022-11-14T02:15:22;101519.72;;;8.25;46.37
53679;BME280;40119;52.030;4.708;2022-11-14T02:17:26;101513.22;;;9.66;44.59
53679;BME280;40119;52.030;4.708;2022-11-14T02:19:49;101515.04;;;6.13;50.44
53679;BME280;40119;52.030;4.708;2022-11-14T02:21:54;101504.23;;;8.41;46.98
53679;BME280;40119;52.030;4.708;2022-11-14T02:23:59;101496.70;;;8.86;45.74
53679;BME280;40119;52.030;4.708;2022-11-14T02:26:03;101501.16;;;6.29;49.48
53679;BME280;40119;52.030;4.708;2022-11-14T02:28:08;101492.83;;;9.52;44.17
53679;BME280;40119;52.030;4.708;2022-11-14T02:30:16;101496.59;;;8.20;45.97
53679;BME280;40119;52.030;4.708;2022-11-14T02:32:21;101495.63;;;7.32;48.55
53679;BME280;40119;52.030;4.708;2022-11-14T02:34:25;101489.13;;;9.81;44.03
53679;BME280;40119;52.030;4.708;2022-11-14T02:36:30;101487.42;;;8.53;46.81
53679;BME280;40119;52.030;4.708;2022-11-14T02:38:35;101489.80;;;7.94;47.10
53679;BME280;40119;52.030;4.708;2022-11-14T02:40:39;101481.88;;;8.61;45.69
53679;BME280;40119;52.030;4.708;2022-11-14T02:42:43;101484.94;;;7.92;47.37
53679;BME280;40119;52.030;4.708;2022-11-14T02:44:48;101485.30;;;8.47;46.23
53679;BME280;40119;52.030;4.708;2022-11-14T02:46:53;101482.13;;;8.55;46.32
53679;BME280;40119;52.030;4.708;2022-11-14T02:48:57;101485.70;;;7.76;47.07
53679;BME280;40119;52.030;4.708;2022-11-14T02:51:01;101484.77;;;7.98;47.10
53679;BME280;40119;52.030;4.708;2022-11-14T02:53:06;101486.09;;;7.31;48.37
53679;BME280;40119;52.030;4.708;2022-11-14T02:55:11;101489.77;;;6.59;49.81
53679;BME280;40119;52.030;4.708;2022-11-14T02:57:15;101484.07;;;7.30;48.89
53679;BME280;40119;52.030;4.708;2022-11-14T02:59:20;101481.21;;;7.15;48.76
53679;BME280;40119;52.030;4.708;2022-11-14T03:01:24;101485.84;;;6.03;50.98
53679;BME280;40119;52.030;4.708;2022-11-14T03:03:28;101478.06;;;6.32;51.26
53679;BME280;40119;52.030;4.708;2022-11-14T03:05:32;101474.13;;;6.53;49.57
53679;BME280;40119;52.030;4.708;2022-11-14T03:07:37;101475.36;;;6.89;50.58
53679;BME280;40119;52.030;4.708;2022-11-14T03:09:41;101474.55;;;7.09;49.19
53679;BME280;40119;52.030;4.708;2022-11-14T03:11:46;101470.80;;;6.93;49.68
53679;BME280;40119;52.030;4.708;2022-11-14T03:13:50;101467.18;;;5.95;51.99
53679;BME280;40119;52.030;4.708;2022-11-14T03:15:55;101464.70;;;6.34;51.59
53679;BME280;40119;52.030;4.708;2022-11-14T03:17:59;101465.24;;;6.06;51.69
53679;BME280;40119;52.030;4.708;2022-11-14T03:20:04;101460.53;;;6.15;51.72
53679;BME280;40119;52.030;4.708;2022-11-14T03:22:09;101459.08;;;6.75;51.01
53679;BME280;40119;52.030;4.708;2022-11-14T03:24:13;101456.40;;;6.19;51.73
53679;BME280;40119;52.030;4.708;2022-11-14T03:26:18;101453.68;;;6.86;50.38
53679;BME280;40119;52.030;4.708;2022-11-14T03:28:22;101451.49;;;5.86;52.69
53679;BME280;40119;52.030;4.708;2022-11-14T03:30:26;101453.20;;;5.06;54.88
53679;BME280;40119;52.030;4.708;2022-11-14T03:32:30;101451.72;;;6.06;52.21
53679;BME280;40119;52.030;4.708;2022-11-14T03:34:35;101450.31;;;5.41;53.52
53679;BME280;40119;52.030;4.708;2022-11-14T03:36:39;101457.74;;;5.19;54.25
53679;BME280;40119;52.030;4.708;2022-11-14T03:38:43;101454.87;;;5.04;55.26
53679;BME280;40119;52.030;4.708;2022-11-14T03:40:48;101458.20;;;6.91;50.86
53679;BME280;40119;52.030;4.708;2022-11-14T03:42:53;101459.21;;;3.01;58.98
53679;BME280;40119;52.030;4.708;2022-11-14T03:45:00;101457.96;;;6.13;52.50
53679;BME280;40119;52.030;4.708;2022-11-14T03:47:04;101456.31;;;6.71;51.03
53679;BME280;40119;52.030;4.708;2022-11-14T03:49:09;101454.55;;;6.26;52.24
53679;BME280;40119;52.030;4.708;2022-11-14T03:51:13;101454.41;;;6.57;51.61
53679;BME280;40119;52.030;4.708;2022-11-14T03:53:17;101454.33;;;6.75;49.52
53679;BME280;40119;52.030;4.708;2022-11-14T03:55:21;101457.69;;;4.59;54.50
53679;BME280;40119;52.030;4.708;2022-11-14T03:57:26;101457.60;;;5.72;51.70
53679;BME280;40119;52.030;4.708;2022-11-14T03:59:30;101455.14;;;5.64;52.30
53679;BME280;40119;52.030;4.708;2022-11-14T04:01:34;101449.78;;;5.76;52.58
53679;BME280;40119;52.030;4.708;2022-11-14T04:03:39;101443.64;;;7.09;49.99
53679;BME280;40119;52.030;4.708;2022-11-14T04:05:43;101443.42;;;7.19;49.32
53679;BME280;40119;52.030;4.708;2022-11-14T04:07:48;101442.77;;;7.28;48.86
53679;BME280;40119;52.030;4.708;2022-11-14T04:09:53;101440.29;;;7.05;47.38
53679;BME280;40119;52.030;4.708;2022-11-14T04:11:58;101431.95;;;8.45;45.71
53679;BME280;40119;52.030;4.708;2022-11-14T04:14:02;101434.27;;;7.44;47.55
53679;BME280;40119;52.030;4.708;2022-11-14T04:16:07;101436.80;;;5.77;50.30
53679;BME280;40119;52.030;4.708;2022-11-14T04:18:11;101431.40;;;7.44;47.53
53679;BME280;40119;52.030;4.708;2022-11-14T04:20:15;101429.74;;;8.11;46.52
53679;BME280;40119;52.030;4.708;2022-11-14T04:22:20;101426.14;;;8.96;45.26
53679;BME280;40119;52.030;4.708;2022-11-14T04:24:24;101420.80;;;7.64;47.54
53679;BME280;40119;52.030;4.708;2022-11-14T04:26:28;101417.97;;;7.95;46.88
53679;BME280;40119;52.030;4.708;2022-11-14T04:28:33;101420.70;;;7.18;47.90
53679;BME280;40119;52.030;4.708;2022-11-14T04:30:37;101418.29;;;6.99;48.24
53679;BME280;40119;52.030;4.708;2022-11-14T04:32:43;101417.22;;;7.41;48.01
53679;BME280;40119;52.030;4.708;2022-11-14T04:34:48;101411.45;;;8.45;45.11
53679;BME280;40119;52.030;4.708;2022-11-14T04:36:53;101405.16;;;8.22;45.56
53679;BME280;40119;52.030;4.708;2022-11-14T04:38:58;101407.11;;;6.58;47.37
53679;BME280;40119;52.030;4.708;2022-11-14T04:41:03;101405.10;;;9.22;44.63
53679;BME280;40119;52.030;4.708;2022-11-14T04:43:07;101405.24;;;10.01;42.17
53679;BME280;40119;52.030;4.708;2022-11-14T04:45:11;101403.81;;;10.13;42.18
53679;BME280;40119;52.030;4.708;2022-11-14T04:47:15;101400.04;;;9.06;42.48
53679;BME280;40119;52.030;4.708;2022-11-14T04:49:20;101396.56;;;10.32;42.17
53679;BME280;40119;52.030;4.708;2022-11-14T04:51:24;101394.70;;;9.79;42.08
53679;BME280;40119;52.030;4.708;2022-11-14T04:53:28;101394.69;;;9.94;41.85
53679;BME280;40119;52.030;4.708;2022-11-14T04:55:33;101393.84;;;7.77;44.59
53679;BME280;40119;52.030;4.708;2022-11-14T04:57:42;101391.82;;;9.47;42.06
53679;BME280;40119;52.030;4.708;2022-11-14T04:59:46;101391.14;;;10.27;40.71
53679;BME280;40119;52.030;4.708;2022-11-14T05:01:51;101395.33;;;7.17;45.21
53679;BME280;40119;52.030;4.708;2022-11-14T05:03:55;101393.04;;;7.78;45.65
53679;BME280;40119;52.030;4.708;2022-11-14T05:05:59;101390.15;;;7.68;44.46
53679;BME280;40119;52.030;4.708;2022-11-14T05:08:04;101388.17;;;9.28;43.25
53679;BME280;40119;52.030;4.708;2022-11-14T05:10:09;101390.59;;;6.86;47.17
53679;BME280;40119;52.030;4.708;2022-11-14T05:12:13;101386.54;;;8.51;44.97
53679;BME280;40119;52.030;4.708;2022-11-14T05:14:17;101381.91;;;8.14;45.24
53679;BME280;40119;52.030;4.708;2022-11-14T05:16:22;101375.53;;;7.72;45.49
53679;BME280;40119;52.030;4.708;2022-11-14T05:18:26;101368.56;;;8.02;46.06
53679;BME280;40119;52.030;4.708;2022-11-14T05:20:31;101364.97;;;7.94;46.81
53679;BME280;40119;52.030;4.708;2022-11-14T05:22:35;101361.67;;;8.05;45.86
53679;BME280;40119;52.030;4.708;2022-11-14T05:24:39;101362.00;;;8.28;46.36
53679;BME280;40119;52.030;4.708;2022-11-14T05:26:44;101365.05;;;8.55;44.86
53679;BME280;40119;52.030;4.708;2022-11-14T05:28:48;101370.38;;;6.93;49.62
53679;BME280;40119;52.030;4.708;2022-11-14T05:30:59;101366.71;;;8.18;45.36
53679;BME280;40119;52.030;4.708;2022-11-14T05:33:03;101362.59;;;6.93;47.16
53679;BME280;40119;52.030;4.708;2022-11-14T05:35:08;101357.44;;;7.81;46.72
53679;BME280;40119;52.030;4.708;2022-11-14T05:37:12;101354.50;;;8.95;44.58
53679;BME280;40119;52.030;4.708;2022-11-14T05:39:22;101353.96;;;7.39;45.76
53679;BME280;40119;52.030;4.708;2022-11-14T05:41:26;101353.12;;;8.07;45.41
53679;BME280;40119;52.030;4.708;2022-11-14T05:43:30;101350.47;;;7.53;45.23
53679;BME280;40119;52.030;4.708;2022-11-14T05:45:35;101350.56;;;8.37;44.90
53679;BME280;40119;52.030;4.708;2022-11-14T05:47:39;101348.89;;;9.46;42.42
53679;BME280;40119;52.030;4.708;2022-11-14T05:49:43;101351.35;;;8.14;44.55
53679;BME280;40119;52.030;4.708;2022-11-14T05:51:48;101354.69;;;6.10;47.33
53679;BME280;40119;52.030;4.708;2022-11-14T05:53:53;101349.84;;;9.60;42.69
53679;BME280;40119;52.030;4.708;2022-11-14T05:55:59;101350.11;;;9.22;42.90
53679;BME280;40119;52.030;4.708;2022-11-14T05:58:03;101347.56;;;9.19;43.20
53679;BME280;40119;52.030;4.708;2022-11-14T06:00:09;101349.78;;;6.92;46.47
53679;BME280;40119;52.030;4.708;2022-11-14T06:02:13;101347.08;;;9.06;43.26
53679;BME280;40119;52.030;4.708;2022-11-14T06:04:18;101346.23;;;8.92;44.12
53679;BME280;40119;52.030;4.708;2022-11-14T06:06:22;101344.90;;;9.07;43.10
53679;BME280;40119;52.030;4.708;2022-11-14T06:08:27;101340.70;;;9.37;41.72
53679;BME280;40119;52.030;4.708;2022-11-14T06:10:33;101342.94;;;8.44;42.61
53679;BME280;40119;52.030;4.708;2022-11-14T06:12:38;101343.17;;;8.73;43.39
53679;BME280;40119;52.030;4.708;2022-11-14T06:14:42;101344.06;;;9.05;42.85
53679;BME280;40119;52.030;4.708;2022-11-14T06:16:47;101348.26;;;6.49;46.72
53679;BME280;40119;52.030;4.708;2022-11-14T06:18:52;101352.66;;;5.94;47.75
53679;BME280;40119;52.030;4.708;2022-11-14T06:20:58;101352.28;;;8.82;42.50
53679;BME280;40119;52.030;4.708;2022-11-14T06:23:02;101351.04;;;7.83;44.41
53679;BME280;40119;52.030;4.708;2022-11-14T06:25:07;101351.50;;;8.01;44.26
53679;BME280;40119;52.030;4.708;2022-11-14T06:27:12;101353.99;;;7.80;45.71
53679;BME280;40119;52.030;4.708;2022-11-14T06:29:16;101355.22;;;6.48;46.06
53679;BME280;40119;52.030;4.708;2022-11-14T06:31:21;101350.92;;;8.37;44.02
53679;BME280;40119;52.030;4.708;2022-11-14T06:33:26;101347.22;;;8.87;42.41
53679;BME280;40119;52.030;4.708;2022-11-14T06:35:31;101346.64;;;8.45;43.66
53679;BME280;40119;52.030;4.708;2022-11-14T06:37:35;101347.56;;;7.80;44.31
53679;BME280;40119;52.030;4.708;2022-11-14T06:39:40;101344.98;;;8.81;43.39
53679;BME280;40119;52.030;4.708;2022-11-14T06:41:44;101346.23;;;9.32;41.52
53679;BME280;40119;52.030;4.708;2022-11-14T06:43:50;101345.39;;;9.53;41.02
53679;BME280;40119;52.030;4.708;2022-11-14T06:45:55;101347.27;;;8.87;42.17
53679;BME280;40119;52.030;4.708;2022-11-14T06:47:59;101347.40;;;10.22;39.90
53679;BME280;40119;52.030;4.708;2022-11-14T06:50:04;101346.57;;;10.81;39.20
53679;BME280;40119;52.030;4.708;2022-11-14T06:52:09;101350.53;;;9.58;39.69
53679;BME280;40119;52.030;4.708;2022-11-14T06:54:14;101350.12;;;9.79;39.92
53679;BME280;40119;52.030;4.708;2022-11-14T06:56:18;101351.60;;;9.80;39.76
53679;BME280;40119;52.030;4.708;2022-11-14T06:58:25;101357.55;;;4.94;46.83
53679;BME280;40119;52.030;4.708;2022-11-14T07:00:29;101352.94;;;7.90;43.73
53679;BME280;40119;52.030;4.708;2022-11-14T07:02:33;101352.15;;;10.84;37.82
53679;BME280;40119;52.030;4.708;2022-11-14T07:04:38;101365.75;;;5.08;46.76
53679;BME280;40119;52.030;4.708;2022-11-14T07:06:42;101360.95;;;8.37;41.03
53679;BME280;40119;52.030;4.708;2022-11-14T07:08:46;101357.01;;;8.59;40.57
53679;BME280;40119;52.030;4.708;2022-11-14T07:10:51;101352.21;;;11.22;37.59
53679;BME280;40119;52.030;4.708;2022-11-14T07:12:56;101354.24;;;6.58;43.47
53679;BME280;40119;52.030;4.708;2022-11-14T07:15:00;101358.86;;;4.66;47.62
53679;BME280;40119;52.030;4.708;2022-11-14T07:17:04;101354.49;;;6.13;44.34
53679;BME280;40119;52.030;4.708;2022-11-14T07:19:09;101345.60;;;8.48;41.99
53679;BME280;40119;52.030;4.708;2022-11-14T07:21:13;101341.43;;;9.63;38.78
53679;BME280;40119;52.030;4.708;2022-11-14T07:23:18;101341.17;;;9.61;39.04
53679;BME280;40119;52.030;4.708;2022-11-14T07:25:22;101336.49;;;10.70;37.36
53679;BME280;40119;52.030;4.708;2022-11-14T07:27:26;101333.40;;;10.45;37.71
53679;BME280;40119;52.030;4.708;2022-11-14T07:29:31;101332.85;;;10.76;37.50
53679;BME280;40119;52.030;4.708;2022-11-14T07:31:36;101336.94;;;9.54;39.68
53679;BME280;40119;52.030;4.708;2022-11-14T07:33:41;101332.34;;;10.89;37.02
53679;BME280;40119;52.030;4.708;2022-11-14T07:35:45;101337.18;;;9.73;38.74
53679;BME280;40119;52.030;4.708;2022-11-14T07:37:50;101340.95;;;7.24;41.66
53679;BME280;40119;52.030;4.708;2022-11-14T07:39:55;101339.62;;;8.32;40.84
53679;BME280;40119;52.030;4.708;2022-11-14T07:41:59;101336.92;;;9.39;38.75
53679;BME280;40119;52.030;4.708;2022-11-14T07:44:04;101332.08;;;11.11;36.76
53679;BME280;40119;52.030;4.708;2022-11-14T07:46:10;101333.91;;;10.46;38.17
53679;BME280;40119;52.030;4.708;2022-11-14T07:48:16;101333.12;;;10.24;38.19
53679;BME280;40119;52.030;4.708;2022-11-14T07:50:20;101345.84;;;2.42;51.51
53679;BME280;40119;52.030;4.708;2022-11-14T07:52:25;101345.70;;;2.32;53.25
53679;BME280;40119;52.030;4.708;2022-11-14T07:54:29;101348.64;;;3.71;50.48
53679;BME280;40119;52.030;4.708;2022-11-14T07:56:33;101338.86;;;7.44;43.55
53679;BME280;40119;52.030;4.708;2022-11-14T07:58:39;101338.38;;;6.13;46.25
53679;BME280;40119;52.030;4.708;2022-11-14T08:00:44;101336.93;;;7.78;42.28
53679;BME280;40119;52.030;4.708;2022-11-14T08:02:48;101328.99;;;9.56;39.37
53679;BME280;40119;52.030;4.708;2022-11-14T08:04:53;101329.18;;;9.09;39.97
53679;BME280;40119;52.030;4.708;2022-11-14T08:06:58;101323.17;;;9.46;39.17
53679;BME280;40119;52.030;4.708;2022-11-14T08:09:02;101326.50;;;8.91;40.86
53679;BME280;40119;52.030;4.708;2022-11-14T08:11:07;101327.19;;;6.41;44.92
53679;BME280;40119;52.030;4.708;2022-11-14T08:13:12;101324.72;;;7.53;43.37
53679;BME280;40119;52.030;4.708;2022-11-14T08:15:17;101325.71;;;7.68;43.81
53679;BME280;40119;52.030;4.708;2022-11-14T08:17:22;101322.45;;;9.01;41.31
53679;BME280;40119;52.030;4.708;2022-11-14T08:19:26;101321.08;;;6.82;45.47
53679;BME280;40119;52.030;4.708;2022-11-14T08:21:30;101321.65;;;6.81;45.12
53679;BME280;40119;52.030;4.708;2022-11-14T08:23:35;101318.88;;;10.12;40.75
53679;BME280;40119;52.030;4.708;2022-11-14T08:25:39;101321.03;;;7.31;43.10
53679;BME280;40119;52.030;4.708;2022-11-14T08:27:44;101324.45;;;4.41;49.83
53679;BME280;40119;52.030;4.708;2022-11-14T08:29:49;101313.53;;;6.88;45.41
53679;BME280;40119;52.030;4.708;2022-11-14T08:31:54;101322.81;;;4.32;49.07
53679;BME280;40119;52.030;4.708;2022-11-14T08:33:59;101313.27;;;8.71;42.40
53679;BME280;40119;52.030;4.708;2022-11-14T08:36:06;101313.40;;;6.89;45.57
53679;BME280;40119;52.030;4.708;2022-11-14T08:38:11;101304.16;;;8.66;42.09
53679;BME280;40119;52.030;4.708;2022-11-14T08:40:15;101300.32;;;8.06;43.05
53679;BME280;40119;52.030;4.708;2022-11-14T08:42:19;101298.75;;;5.66;49.63
53679;BME280;40119;52.030;4.708;2022-11-14T08:44:24;101297.84;;;5.17;48.13
53679;BME280;40119;52.030;4.708;2022-11-14T08:46:28;101290.77;;;7.04;46.36
53679;BME280;40119;52.030;4.708;2022-11-14T08:48:32;101289.09;;;7.11;46.01
53679;BME280;40119;52.030;4.708;2022-11-14T08:50:37;101285.80;;;8.47;43.98
53679;BME280;40119;52.030;4.708;2022-11-14T08:52:41;101284.96;;;8.35;44.15
53679;BME280;40119;52.030;4.708;2022-11-14T08:54:45;101279.64;;;10.05;40.78
53679;BME280;40119;52.030;4.708;2022-11-14T08:56:50;101282.59;;;7.63;44.51
53679;BME280;40119;52.030;4.708;2022-11-14T08:58:55;101280.68;;;8.80;42.98
53679;BME280;40119;52.030;4.708;2022-11-14T09:01:05;101282.62;;;9.84;41.20
53679;BME280;40119;52.030;4.708;2022-11-14T09:03:10;101282.51;;;7.97;44.37
53679;BME280;40119;52.030;4.708;2022-11-14T09:05:15;101279.81;;;9.13;41.79
53679;BME280;40119;52.030;4.708;2022-11-14T09:07:19;101280.86;;;6.85;45.56
53679;BME280;40119;52.030;4.708;2022-11-14T09:09:24;101279.57;;;7.52;45.07
53679;BME280;40119;52.030;4.708;2022-11-14T09:11:28;101280.11;;;5.82;47.16
53679;BME280;40119;52.030;4.708;2022-11-14T09:13:33;101279.22;;;9.23;43.20
53679;BME280;40119;52.030;4.708;2022-11-14T09:15:37;101278.76;;;8.84;42.72
53679;BME280;40119;52.030;4.708;2022-11-14T09:17:42;101272.17;;;8.87;42.62
53679;BME280;40119;52.030;4.708;2022-11-14T09:19:46;101268.48;;;8.57;42.57
53679;BME280;40119;52.030;4.708;2022-11-14T09:21:50;101271.50;;;8.48;43.09
53679;BME280;40119;52.030;4.708;2022-11-14T09:23:55;101273.34;;;9.23;42.67
53679;BME280;40119;52.030;4.708;2022-11-14T09:26:03;101277.41;;;5.77;48.02
53679;BME280;40119;52.030;4.708;2022-11-14T09:28:08;101276.58;;;6.98;46.79
53679;BME280;40119;52.030;4.708;2022-11-14T09:30:14;101273.28;;;7.14;47.47
53679;BME280;40119;52.030;4.708;2022-11-14T09:32:18;101267.05;;;9.11;44.13
53679;BME280;40119;52.030;4.708;2022-11-14T09:34:22;101260.89;;;10.30;41.60
53679;BME280;40119;52.030;4.708;2022-11-14T09:36:26;101263.31;;;10.07;41.78
53679;BME280;40119;52.030;4.708;2022-11-14T09:38:31;101264.06;;;9.81;42.39
53679;BME280;40119;52.030;4.708;2022-11-14T09:40:46;101270.00;;;8.56;43.84
53679;BME280;40119;52.030;4.708;2022-11-14T09:43:04;101267.28;;;6.25;48.95
53679;BME280;40119;52.030;4.708;2022-11-14T09:45:15;101252.76;;;10.53;40.07
53679;BME280;40119;52.030;4.708;2022-11-14T09:47:22;101254.01;;;10.33;40.85
53679;BME280;40119;52.030;4.708;2022-11-14T09:49:34;101263.48;;;7.68;44.27
53679;BME280;40119;52.030;4.708;2022-11-14T09:51:47;101264.16;;;8.85;43.50
53679;BME280;40119;52.030;4.708;2022-11-14T09:53:58;101262.93;;;7.12;45.70
53679;BME280;40119;52.030;4.708;2022-11-14T09:56:08;101260.71;;;5.38;50.53
53679;BME280;40119;52.030;4.708;2022-11-14T09:58:19;101264.88;;;5.17;51.77
53679;BME280;40119;52.030;4.708;2022-11-14T10:00:25;101259.16;;;6.17;50.83
53679;BME280;40119;52.030;4.708;2022-11-14T10:02:39;101253.07;;;7.67;47.42
53679;BME280;40119;52.030;4.708;2022-11-14T10:04:53;101248.86;;;6.97;47.52
53679;BME280;40119;52.030;4.708;2022-11-14T10:07:10;101246.82;;;8.50;45.51
53679;BME280;40119;52.030;4.708;2022-11-14T10:09:31;101239.12;;;9.71;43.03
53679;BME280;40119;52.030;4.708;2022-11-14T10:11:43;101235.63;;;10.37;42.89
53679;BME280;40119;52.030;4.708;2022-11-14T10:14:05;101233.36;;;7.95;44.87
53679;BME280;40119;52.030;4.708;2022-11-14T10:16:16;101227.06;;;10.40;42.07
53679;BME280;40119;52.030;4.708;2022-11-14T10:18:36;101225.14;;;10.17;40.96
53679;BME280;40119;52.030;4.708;2022-11-14T10:20:49;101230.09;;;7.60;45.80
53679;BME280;40119;52.030;4.708;2022-11-14T10:23:08;101217.75;;;10.89;41.24
53679;BME280;40119;52.030;4.708;2022-11-14T10:25:22;101217.95;;;11.90;38.56
53679;BME280;40119;52.030;4.708;2022-11-14T10:27:30;101219.66;;;10.81;40.81
53679;BME280;40119;52.030;4.708;2022-11-14T10:29:49;101225.70;;;9.30;43.57
53679;BME280;40119;52.030;4.708;2022-11-14T10:32:04;101225.73;;;10.48;41.46
53679;BME280;40119;52.030;4.708;2022-11-14T10:34:21;101225.12;;;12.14;39.22
53679;BME280;40119;52.030;4.708;2022-11-14T10:36:43;101233.08;;;8.31;45.77
53679;BME280;40119;52.030;4.708;2022-11-14T10:38:53;101230.10;;;10.40;43.42
53679;BME280;40119;52.030;4.708;2022-11-14T10:41:05;101231.40;;;10.55;43.46
53679;BME280;40119;52.030;4.708;2022-11-14T10:43:19;101225.70;;;11.65;40.99
53679;BME280;40119;52.030;4.708;2022-11-14T10:45:28;101225.83;;;11.45;41.87
53679;BME280;40119;52.030;4.708;2022-11-14T10:47:39;101227.47;;;8.38;45.78
53679;BME280;40119;52.030;4.708;2022-11-14T10:49:45;101222.14;;;7.99;47.44
53679;BME280;40119;52.030;4.708;2022-11-14T10:51:53;101211.79;;;11.80;40.93
53679;BME280;40119;52.030;4.708;2022-11-14T10:54:04;101209.60;;;9.39;43.90
53679;BME280;40119;52.030;4.708;2022-11-14T10:56:10;101206.05;;;8.51;47.35
53679;BME280;40119;52.030;4.708;2022-11-14T10:58:15;101206.92;;;8.00;46.33
53679;BME280;40119;52.030;4.708;2022-11-14T11:00:21;101201.02;;;7.81;47.74
53679;BME280;40119;52.030;4.708;2022-11-14T11:02:25;101192.22;;;10.37;42.88
53679;BME280;40119;52.030;4.708;2022-11-14T11:04:30;101190.18;;;10.98;42.36